Time;durP1;ratioP1;P1;durP2;ratioP2;P2;SDS_P1;SDS_P2;PMS_P1;PMS_P2;Temp;Humidity;BMP_temperature;BMP_pressure;BME280_temperature;BME280_humidity;BME280_pressure;Samples;Min_cycle;Max_cycle;Signal;HPM_P1;HPM_P2
2022/08/04 00:01:59;;;;;;;;;;;589.30;1971.20;;;;;;5074462;28;19924;-59
2022/08/04 00:04:31;;;;;;;;;;;589.30;1971.20;;;;;;5074513;28;20373;-58
2022/08/04 00:07:04;;;;;;;;;;;589.30;1971.20;;;;;;5074388;28;19931;-60
2022/08/04 00:09:45;;;;;;;;;;;589.30;1971.20;;;;;;5074446;28;19909;-58
2022/08/04 00:12:11;;;;;;;;;;;589.30;1996.80;;;;;;5074252;28;20350;-59
2022/08/04 00:14:40;;;;;;;;;;;589.30;2022.40;;;;;;5074109;28;19909;-59
2022/08/04 00:17:07;;;;;;;;;;;589.20;2022.40;;;;;;5074343;28;20004;-59
2022/08/04 00:19:39;;;;;;;;;;;589.20;2022.40;;;;;;5074416;28;20294;-59
2022/08/04 00:22:07;;;;;;;;;;;589.20;1996.80;;;;;;5074229;28;19909;-58
2022/08/04 00:24:34;;;;;;;;;;;589.20;2022.40;;;;;;5074179;28;19973;-59
2022/08/04 00:26:59;;;;;;;;;;;589.20;1996.80;;;;;;5073988;28;19909;-60
2022/08/04 00:29:26;;;;;;;;;;;589.10;2022.40;;;;;;5074082;28;19909;-61
2022/08/04 00:31:54;;;;;;;;;;;589.00;2048.00;;;;;;5073964;28;20359;-59
2022/08/04 00:34:19;;;;;;;;;;;588.80;2124.80;;;;;;5073838;28;19908;-58
2022/08/04 00:36:45;;;;;;;;;;;588.80;2150.40;;;;;;5073976;28;20380;-59
2022/08/04 00:39:11;;;;;;;;;;;564.10;2150.40;;;;;;5073629;28;20282;-59
2022/08/04 00:41:50;;;;;;;;;;;564.00;2176.00;;;;;;5073759;28;19909;-59
2022/08/04 00:44:25;;;;;;;;;;;564.00;2201.60;;;;;;5073763;28;20322;-59
2022/08/04 00:47:06;;;;;;;;;;;564.00;2176.00;;;;;;5073874;28;19908;-58
2022/08/04 00:49:47;;;;;;;;;;;564.10;2150.40;;;;;;5073854;28;20316;-58
2022/08/04 00:52:31;;;;;;;;;;;563.90;2278.40;;;;;;5073652;28;19908;-58
2022/08/04 00:55:03;;;;;;;;;;;563.80;2380.80;;;;;;5073517;28;20397;-61
2022/08/04 00:57:47;;;;;;;;;;;563.90;2304.00;;;;;;5073351;28;20360;-58
2022/08/04 01:00:13;;;;;;;;;;;564.00;2252.80;;;;;;5072443;28;19927;-58
2022/08/04 01:02:48;;;;;;;;;;;563.90;2252.80;;;;;;5073292;28;20059;-61
2022/08/04 01:05:20;;;;;;;;;;;564.00;2227.20;;;;;;5073483;28;19974;-59
2022/08/04 01:07:46;;;;;;;;;;;563.80;2278.40;;;;;;5073197;28;20477;-60
2022/08/04 01:10:29;;;;;;;;;;;563.80;2304.00;;;;;;5073569;28;19928;-58
2022/08/04 01:13:04;;;;;;;;;;;564.00;2304.00;;;;;;5073356;28;19974;-59
2022/08/04 01:15:43;;;;;;;;;;;564.00;2278.40;;;;;;5073116;28;19909;-58
2022/08/04 01:18:12;;;;;;;;;;;564.10;2252.80;;;;;;5073051;28;20262;-62
2022/08/04 01:20:41;;;;;;;;;;;564.10;2252.80;;;;;;5073173;28;19915;-59
2022/08/04 01:23:09;;;;;;;;;;;564.10;2278.40;;;;;;5072989;28;20278;-59
2022/08/04 01:25:54;;;;;;;;;;;564.00;2278.40;;;;;;5073223;28;19966;-59
2022/08/04 01:28:28;;;;;;;;;;;564.00;2278.40;;;;;;5073011;28;20038;-61
2022/08/04 01:31:01;;;;;;;;;;;564.00;2304.00;;;;;;5073048;28;19969;-59
2022/08/04 01:33:28;;;;;;;;;;;563.90;2278.40;;;;;;5072997;28;19917;-59
2022/08/04 01:35:54;;;;;;;;;;;563.90;2329.60;;;;;;5072991;28;19909;-59
2022/08/04 01:38:36;;;;;;;;;;;563.90;2329.60;;;;;;5072673;28;19931;-59
2022/08/04 01:41:03;;;;;;;;;;;563.80;2355.20;;;;;;5073006;28;19909;-59
2022/08/04 01:43:29;;;;;;;;;;;563.80;2380.80;;;;;;5072464;28;19916;-59
2022/08/04 01:45:59;;;;;;;;;;;563.80;2380.80;;;;;;5072666;28;19909;-58
2022/08/04 01:48:25;;;;;;;;;;;563.60;2432.00;;;;;;5071322;28;19915;-59
2022/08/04 01:50:52;;;;;;;;;;;563.50;2432.00;;;;;;5072628;28;20358;-59
2022/08/04 01:53:18;;;;;;;;;;;563.60;2432.00;;;;;;5072274;28;19916;-61
2022/08/04 01:55:45;;;;;;;;;;;563.50;2432.00;;;;;;5072489;28;19908;-61
2022/08/04 01:58:11;;;;;;;;;;;563.40;2432.00;;;;;;5072424;28;20278;-60
2022/08/04 02:00:40;;;;;;;;;;;563.50;2432.00;;;;;;5071838;28;19995;-61
2022/08/04 02:03:06;;;;;;;;;;;563.40;2432.00;;;;;;5072016;28;19921;-61
2022/08/04 02:05:32;;;;;;;;;;;563.30;2432.00;;;;;;5072192;28;20011;-61
2022/08/04 02:07:59;;;;;;;;;;;563.30;2432.00;;;;;;5072054;28;20007;-61
2022/08/04 02:10:43;;;;;;;;;;;538.50;2406.40;;;;;;5071859;28;19912;-61
2022/08/04 02:13:09;;;;;;;;;;;538.50;2406.40;;;;;;5072037;28;19908;-61
2022/08/04 02:15:48;;;;;;;;;;;538.50;2406.40;;;;;;5072223;28;20263;-61
2022/08/04 02:18:22;;;;;;;;;;;538.50;2406.40;;;;;;5072016;28;19932;-60
2022/08/04 02:20:48;;;;;;;;;;;538.50;2406.40;;;;;;5071641;28;19908;-60
2022/08/04 02:23:15;;;;;;;;;;;538.50;2406.40;;;;;;5071949;28;19939;-61
2022/08/04 02:25:54;;;;;;;;;;;538.50;2406.40;;;;;;5071674;28;19962;-62
2022/08/04 02:28:25;;;;;;;;;;;538.50;2406.40;;;;;;5071666;28;20007;-60
2022/08/04 02:30:54;;;;;;;;;;;538.50;2406.40;;;;;;5071754;28;19927;-60
2022/08/04 02:33:23;;;;;;;;;;;563.20;2432.00;;;;;;5071525;28;19913;-60
2022/08/04 02:35:53;;;;;;;;;;;563.30;2432.00;;;;;;5071526;28;19955;-61
2022/08/04 02:38:37;;;;;;;;;;;563.20;2432.00;;;;;;5071394;28;19915;-60
2022/08/04 02:41:03;;;;;;;;;;;538.40;2406.40;;;;;;5071630;28;19912;-61
2022/08/04 02:43:29;;;;;;;;;;;538.20;2406.40;;;;;;5071440;28;19916;-61
2022/08/04 02:45:58;;;;;;;;;;;538.10;2406.40;;;;;;5071509;28;20355;-61
2022/08/04 02:48:25;;;;;;;;;;;538.20;2406.40;;;;;;5071498;28;19916;-60
2022/08/04 02:50:53;;;;;;;;;;;538.10;2406.40;;;;;;5071408;28;19908;-61
2022/08/04 02:53:21;;;;;;;;;;;538.20;2406.40;;;;;;5071374;28;19962;-61
2022/08/04 02:55:46;;;;;;;;;;;538.20;2406.40;;;;;;5071136;28;19981;-61
2022/08/04 02:58:14;;;;;;;;;;;538.10;2406.40;;;;;;5071442;28;19912;-61
2022/08/04 03:00:39;;;;;;;;;;;538.20;2406.40;;;;;;5070869;28;19927;-61
2022/08/04 03:03:25;;;;;;;;;;;538.40;2406.40;;;;;;5071359;28;19920;-58
2022/08/04 03:05:59;;;;;;;;;;;538.50;2406.40;;;;;;5071146;28;20492;-60
2022/08/04 03:08:43;;;;;;;;;;;538.50;2406.40;;;;;;5071183;28;19908;-61
2022/08/04 03:11:11;;;;;;;;;;;538.50;2406.40;;;;;;5070938;28;20011;-61
2022/08/04 03:13:41;;;;;;;;;;;538.50;2406.40;;;;;;5071212;28;19915;-59
2022/08/04 03:16:19;;;;;;;;;;;538.50;2406.40;;;;;;5071126;28;19999;-60
2022/08/04 03:19:10;;;;;;;;;;;538.50;2406.40;;;;;;5071028;28;19954;-60
2022/08/04 03:21:54;;;;;;;;;;;538.50;2406.40;;;;;;5046337;28;19909;-61
2022/08/04 03:24:23;;;;;;;;;;;538.50;2406.40;;;;;;5070970;28;19920;-61
2022/08/04 03:27:02;;;;;;;;;;;538.50;2406.40;;;;;;5070687;28;19912;-62
2022/08/04 03:29:46;;;;;;;;;;;538.50;2406.40;;;;;;5070790;28;19932;-62
2022/08/04 03:32:20;;;;;;;;;;;538.50;2406.40;;;;;;5071006;28;20003;-62
2022/08/04 03:35:04;;;;;;;;;;;538.50;2406.40;;;;;;5070740;28;19913;-61
2022/08/04 03:37:30;;;;;;;;;;;538.40;2406.40;;;;;;5070688;28;20006;-61
2022/08/04 03:40:14;;;;;;;;;;;538.20;2406.40;;;;;;5071049;28;19940;-60
2022/08/04 03:42:42;;;;;;;;;;;538.10;2406.40;;;;;;5070572;28;19908;-61
2022/08/04 03:45:23;;;;;;;;;;;538.00;2406.40;;;;;;5070681;28;19912;-63
2022/08/04 03:47:55;;;;;;;;;;;538.00;2406.40;;;;;;5070657;28;19916;-63
2022/08/04 03:50:26;;;;;;;;;;;538.00;2406.40;;;;;;5070566;28;19970;-61
2022/08/04 03:53:10;;;;;;;;;;;538.10;2406.40;;;;;;5070724;28;19942;-60
2022/08/04 03:55:39;;;;;;;;;;;538.20;2406.40;;;;;;5070701;28;19909;-60
2022/08/04 03:58:22;;;;;;;;;;;538.50;2406.40;;;;;;5070671;28;20414;-60
2022/08/04 04:00:47;;;;;;;;;;;538.50;2406.40;;;;;;5070294;28;19920;-60
2022/08/04 04:03:32;;;;;;;;;;;538.50;2406.40;;;;;;5070686;28;19922;-60
2022/08/04 04:06:00;;;;;;;;;;;538.50;2406.40;;;;;;5070404;28;20396;-61
2022/08/04 04:08:32;;;;;;;;;;;538.50;2406.40;;;;;;5070320;28;19948;-61
2022/08/04 04:11:15;;;;;;;;;;;563.40;2432.00;;;;;;5070401;28;19977;-60
2022/08/04 04:13:41;;;;;;;;;;;563.30;2432.00;;;;;;5070548;28;20400;-61
2022/08/04 04:16:12;;;;;;;;;;;563.30;2432.00;;;;;;5070321;28;19909;-60
2022/08/04 04:18:38;;;;;;;;;;;563.30;2432.00;;;;;;5070283;28;19932;-60
2022/08/04 04:21:06;;;;;;;;;;;563.50;2432.00;;;;;;5069628;28;20375;-60
2022/08/04 04:23:32;;;;;;;;;;;563.60;2432.00;;;;;;5070525;28;20075;-60
2022/08/04 04:26:16;;;;;;;;;;;563.60;2432.00;;;;;;5070157;28;20274;-60
2022/08/04 04:28:55;;;;;;;;;;;563.80;2432.00;;;;;;5070302;28;19995;-60
2022/08/04 04:31:20;;;;;;;;;;;564.00;2432.00;;;;;;5070319;28;19912;-61
2022/08/04 04:33:46;;;;;;;;;;;564.10;2432.00;;;;;;5072241;28;19912;-62
2022/08/04 04:36:14;;;;;;;;;;;588.80;2432.00;;;;;;5073879;28;19931;-60
2022/08/04 04:38:46;;;;;;;;;;;588.80;2432.00;;;;;;5072722;28;20326;-60
2022/08/04 04:41:22;;;;;;;;;;;588.80;2432.00;;;;;;5073841;28;20355;-61
2022/08/04 04:43:57;;;;;;;;;;;564.10;2432.00;;;;;;5073814;28;19971;-60
2022/08/04 04:46:42;;;;;;;;;;;589.00;2432.00;;;;;;5073705;28;19912;-60
2022/08/04 04:49:28;;;;;;;;;;;589.10;2432.00;;;;;;5073545;28;19909;-60
2022/08/04 04:52:01;;;;;;;;;;;589.30;2432.00;;;;;;5066171;28;19909;-61
2022/08/04 04:54:32;;;;;;;;;;;589.60;2432.00;;;;;;5073409;28;19908;-62
2022/08/04 04:57:05;;;;;;;;;;;614.40;2380.80;;;;;;5073723;28;20320;-59
2022/08/04 04:59:33;;;;;;;;;;;614.60;2304.00;;;;;;5073271;28;19909;-60
2022/08/04 05:02:11;;;;;;;;;;;614.80;2304.00;;;;;;5073127;28;19924;-59
2022/08/04 05:04:36;;;;;;;;;;;666.00;2124.80;;;;;;5073190;28;19924;-62
2022/08/04 05:07:08;;;;;;;;;;;742.70;1817.60;;;;;;5073631;28;19912;-60
2022/08/04 05:09:43;;;;;;;;;;;794.00;1612.80;;;;;;5073419;28;19909;-58
2022/08/04 05:12:27;;;;;;;;;;;845.00;1484.80;;;;;;5073138;28;20350;-61
2022/08/04 05:14:55;;;;;;;;;;;871.10;1356.80;;;;;;5073191;28;19958;-61
2022/08/04 05:17:28;;;;;;;;;;;896.90;1254.40;;;;;;5073065;28;19909;-59
2022/08/04 05:20:07;;;;;;;;;;;947.20;1203.20;;;;;;5073180;28;19975;-61
2022/08/04 05:22:33;;;;;;;;;;;;;;;;;;5073015;28;19908;-59
2022/08/04 05:25:07;;;;;;;;;;;947.90;1152.00;;;;;;5072826;28;20023;-59
2022/08/04 05:27:38;;;;;;;;;;;973.30;1100.80;;;;;;5073123;28;19912;-59
2022/08/04 05:30:04;;;;;;;;;;;973.20;1126.40;;;;;;5073087;28;20016;-58
2022/08/04 05:32:36;;;;;;;;;;;998.60;1100.80;;;;;;5072735;28;19920;-61
2022/08/04 05:35:01;;;;;;;;;;;;;;;;;;5072933;28;19975;-59
2022/08/04 05:37:28;;;;;;;;;;;999.10;1075.20;;;;;;5072625;28;19916;-59
2022/08/04 05:39:54;;;;;;;;;;;;;;;;;;5072884;28;20413;-62
2022/08/04 05:42:20;;;;;;;;;;;1024.60;1024.00;;;;;;5072448;28;19908;-59
2022/08/04 05:44:46;;;;;;;;;;;1050.00;1024.00;;;;;;5072300;28;19920;-59
2022/08/04 05:47:12;;;;;;;;;;;1050.40;998.40;;;;;;5072906;28;19908;-60
2022/08/04 05:49:38;;;;;;;;;;;1075.40;972.80;;;;;;5072692;28;19934;-59
2022/08/04 05:52:05;;;;;;;;;;;1075.50;972.80;;;;;;5072814;28;20326;-59
2022/08/04 05:54:31;;;;;;;;;;;1024.70;1024.00;;;;;;5072730;28;19947;-59
2022/08/04 05:56:57;;;;;;;;;;;973.40;1075.20;;;;;;5072785;28;19909;-61
2022/08/04 05:59:24;;;;;;;;;;;973.70;1075.20;;;;;;5071678;28;19935;-61
2022/08/04 06:01:51;;;;;;;;;;;973.20;1126.40;;;;;;5072045;28;19920;-59
2022/08/04 06:04:18;;;;;;;;;;;998.80;1075.20;;;;;;5072125;28;19921;-61
2022/08/04 06:06:44;;;;;;;;;;;1024.50;1049.60;;;;;;5072360;28;20355;-61
2022/08/04 06:09:10;;;;;;;;;;;1075.40;998.40;;;;;;5072099;28;19963;-62
2022/08/04 06:11:37;;;;;;;;;;;1050.40;1024.00;;;;;;5072133;28;20320;-61
2022/08/04 06:14:06;;;;;;;;;;;1050.30;1024.00;;;;;;5072049;28;20259;-61
2022/08/04 06:16:34;;;;;;;;;;;1075.60;998.40;;;;;;5072188;28;19995;-61
2022/08/04 06:19:04;;;;;;;;;;;1075.50;972.80;;;;;;5071876;28;19908;-61
2022/08/04 06:21:30;;;;;;;;;;;1024.50;1024.00;;;;;;5071886;28;19908;-61
2022/08/04 06:23:57;;;;;;;;;;;998.60;1100.80;;;;;;5071885;28;19917;-61
2022/08/04 06:26:23;;;;;;;;;;;973.40;1100.80;;;;;;5071936;28;20434;-61
2022/08/04 06:28:50;;;;;;;;;;;947.70;1152.00;;;;;;5071662;28;19912;-61
2022/08/04 06:32:12;;;;;;;;;;;973.20;1152.00;;;;;;5071742;28;20365;-61
2022/08/04 06:34:06;;;;;;;;;;;948.00;1152.00;;;;;;5064366;28;19917;-60
2022/08/04 06:36:31;;;;;;;;;;;922.40;1203.20;;;;;;5071843;28;19991;-61
2022/08/04 06:39:00;;;;;;;;;;;921.70;1228.80;;;;;;5071399;28;20451;-61
2022/08/04 06:41:27;;;;;;;;;;;896.10;1254.40;;;;;;5072017;28;20444;-60
2022/08/04 06:43:53;;;;;;;;;;;871.00;1280.00;;;;;;5071401;28;19920;-60
2022/08/04 06:46:19;;;;;;;;;;;870.70;1280.00;;;;;;5071334;28;19908;-61
2022/08/04 06:48:45;;;;;;;;;;;845.50;1331.20;;;;;;5071576;28;19908;-61
2022/08/04 06:51:13;;;;;;;;;;;845.40;1331.20;;;;;;5071160;28;19943;-61
2022/08/04 06:53:38;;;;;;;;;;;845.50;1356.80;;;;;;5071184;28;19908;-61
2022/08/04 06:56:04;;;;;;;;;;;896.70;1228.80;;;;;;5071135;28;19918;-61
2022/08/04 06:58:31;;;;;;;;;;;998.80;1100.80;;;;;;5070747;28;19978;-62
2022/08/04 07:01:00;;;;;;;;;;;1050.50;1024.00;;;;;;5070915;28;19920;-61
2022/08/04 07:03:27;;;;;;;;;;;1100.90;998.40;;;;;;5070953;28;19963;-64
2022/08/04 07:05:52;;;;;;;;;;;1100.90;972.80;;;;;;5071314;28;19918;-64
2022/08/04 07:08:19;;;;;;;;;;;1050.00;1049.60;;;;;;5070886;28;20011;-65
2022/08/04 07:10:45;;;;;;;;;;;1076.10;972.80;;;;;;5071182;28;20443;-64
2022/08/04 07:13:11;;;;;;;;;;;1101.00;998.40;;;;;;5071227;28;19916;-63
2022/08/04 07:15:37;;;;;;;;;;;1101.10;972.80;;;;;;5070698;28;19913;-63
2022/08/04 07:18:03;;;;;;;;;;;1127.30;921.60;;;;;;5071313;28;19967;-60
2022/08/04 07:20:29;;;;;;;;;;;1152.10;921.60;;;;;;5076852;28;19913;-61
2022/08/04 07:22:55;;;;;;;;;;;1177.70;870.40;;;;;;5081261;28;20003;-63
2022/08/04 07:25:21;;;;;;;;;;;1152.70;870.40;;;;;;5079760;28;19909;-60
2022/08/04 07:27:47;;;;;;;;;;;1203.30;870.40;;;;;;5078239;28;20410;-62
2022/08/04 07:30:13;;;;;;;;;;;1229.40;819.20;;;;;;5060095;28;19955;-61
2022/08/04 07:32:40;;;;;;;;;;;1229.00;819.20;;;;;;5084515;28;20003;-57
2022/08/04 07:35:07;;;;;;;;;;;1229.40;819.20;;;;;;5091386;28;20447;-57
2022/08/04 07:37:32;;;;;;;;;;;1254.50;844.80;;;;;;5090995;28;20366;-57
2022/08/04 07:39:59;;;;;;;;;;;1255.00;819.20;;;;;;5090916;28;19916;-57
2022/08/04 07:42:25;;;;;;;;;;;1178.30;844.80;;;;;;5087774;28;19912;-58
2022/08/04 07:44:50;;;;;;;;;;;1254.60;819.20;;;;;;5080822;28;19916;-57
2022/08/04 07:47:16;;;;;;;;;;;1229.30;819.20;;;;;;5080174;28;19962;-57
2022/08/04 07:49:42;;;;;;;;;;;1229.40;819.20;;;;;;5091099;28;19913;-58
2022/08/04 07:52:08;;;;;;;;;;;1203.80;819.20;;;;;;5090683;28;19929;-57
2022/08/04 07:54:34;;;;;;;;;;;1203.20;870.40;;;;;;5090884;28;19908;-61
2022/08/04 07:56:59;;;;;;;;;;;1203.40;844.80;;;;;;5090683;28;19992;-57
2022/08/04 07:59:25;;;;;;;;;;;1229.50;819.20;;;;;;5090828;28;19962;-57
2022/08/04 08:01:51;;;;;;;;;;;1280.40;768.00;;;;;;5090379;28;19927;-57
2022/08/04 08:04:17;;;;;;;;;;;1203.80;819.20;;;;;;5079738;28;19931;-56
2022/08/04 08:06:43;;;;;;;;;;;1228.80;844.80;;;;;;5070402;28;20002;-56
2022/08/04 08:09:13;;;;;;;;;;;1229.20;844.80;;;;;;5072883;28;19951;-57
2022/08/04 08:11:39;;;;;;;;;;;1254.60;844.80;;;;;;5074471;28;19966;-58
2022/08/04 08:14:07;;;;;;;;;;;1255.30;793.60;;;;;;5074405;28;19954;-58
2022/08/04 08:16:33;;;;;;;;;;;1280.50;793.60;;;;;;5074619;28;19912;-60
2022/08/04 08:18:59;;;;;;;;;;;1280.40;793.60;;;;;;5074076;28;19939;-56
2022/08/04 08:21:25;;;;;;;;;;;1305.70;768.00;;;;;;5074182;28;19951;-58
2022/08/04 08:23:51;;;;;;;;;;;1255.10;793.60;;;;;;5073981;28;19916;-56
2022/08/04 08:26:16;;;;;;;;;;;1229.00;819.20;;;;;;5073917;28;20323;-60
2022/08/04 08:28:42;;;;;;;;;;;1178.20;819.20;;;;;;5074387;28;19916;-56
2022/08/04 08:31:07;;;;;;;;;;;1177.70;844.80;;;;;;5073893;28;20393;-58
2022/08/04 08:33:33;;;;;;;;;;;1152.40;844.80;;;;;;5074253;28;20274;-58
2022/08/04 08:36:05;;;;;;;;;;;1126.80;896.00;;;;;;5073869;28;20008;-55
2022/08/04 08:38:43;;;;;;;;;;;1101.10;921.60;;;;;;5073755;28;20390;-57
2022/08/04 08:41:39;;;;;;;;;;;1075.60;921.60;;;;;;5073727;28;19995;-60
2022/08/04 08:44:10;;;;;;;;;;;1050.00;972.80;;;;;;4992268;28;19957;-57
2022/08/04 08:46:39;;;;;;;;;;;999.10;1024.00;;;;;;4992368;28;20022;-57
2022/08/04 08:49:13;;;;;;;;;;;999.00;1024.00;;;;;;4992270;28;19922;-57
2022/08/04 08:51:43;;;;;;;;;;;947.70;1075.20;;;;;;4991954;28;19933;-64
2022/08/04 08:54:12;;;;;;;;;;;947.70;1075.20;;;;;;4992192;28;19910;-55
2022/08/04 08:57:04;;;;;;;;;;;922.10;1100.80;;;;;;4991987;28;19941;-56
2022/08/04 08:59:30;;;;;;;;;;;947.80;1075.20;;;;;;4990102;28;20005;-59
2022/08/04 09:02:10;;;;;;;;;;;922.40;1100.80;;;;;;4991999;28;19976;-57
2022/08/04 09:04:47;;;;;;;;;;;947.40;1075.20;;;;;;4991998;28;19921;-56
2022/08/04 09:07:15;;;;;;;;;;;922.50;1100.80;;;;;;5003415;28;19918;-56
2022/08/04 09:09:48;;;;;;;;;;;922.50;1100.80;;;;;;5011457;28;19936;-57
2022/08/04 09:12:13;;;;;;;;;;;922.50;1100.80;;;;;;5011566;28;19964;-62
2022/08/04 09:14:44;;;;;;;;;;;947.20;1126.40;;;;;;5011191;28;19909;-60
2022/08/04 09:17:18;;;;;;;;;;;947.80;1100.80;;;;;;5011219;28;19913;-56
2022/08/04 09:19:48;;;;;;;;;;;947.50;1075.20;;;;;;5022595;28;20321;-57
2022/08/04 09:22:24;;;;;;;;;;;947.70;1075.20;;;;;;5073228;28;20256;-56
2022/08/04 09:25:11;;;;;;;;;;;947.60;1100.80;;;;;;5072905;28;20465;-55
2022/08/04 09:27:44;;;;;;;;;;;921.80;1126.40;;;;;;5073007;28;19908;-56
2022/08/04 09:30:11;;;;;;;;;;;921.70;1152.00;;;;;;5072743;28;19999;-55
2022/08/04 09:32:37;;;;;;;;;;;921.80;1152.00;;;;;;5072857;28;19924;-59
2022/08/04 09:35:25;;;;;;;;;;;896.90;1152.00;;;;;;5072843;28;19912;-61
2022/08/04 09:37:51;;;;;;;;;;;896.30;1126.40;;;;;;5072578;28;20355;-63
2022/08/04 09:40:24;;;;;;;;;;;896.50;1152.00;;;;;;5072980;28;19908;-55
2022/08/04 09:42:50;;;;;;;;;;;896.40;1126.40;;;;;;5071602;28;19913;-55
2022/08/04 09:45:34;;;;;;;;;;;896.70;1126.40;;;;;;5072745;28;19919;-57
2022/08/04 09:48:08;;;;;;;;;;;896.90;1100.80;;;;;;5072564;28;19908;-56
2022/08/04 09:50:38;;;;;;;;;;;896.90;1100.80;;;;;;5070821;28;19908;-56
2022/08/04 09:53:22;;;;;;;;;;;896.70;1126.40;;;;;;5072288;28;19915;-64
2022/08/04 09:55:58;;;;;;;;;;;896.50;1126.40;;;;;;5072510;28;20243;-64
2022/08/04 09:58:27;;;;;;;;;;;896.50;1100.80;;;;;;5072631;28;19970;-55
2022/08/04 10:01:00;;;;;;;;;;;871.30;1126.40;;;;;;5072247;28;19920;-54
2022/08/04 10:03:31;;;;;;;;;;;871.30;1100.80;;;;;;5072479;28;20386;-55
2022/08/04 10:06:09;;;;;;;;;;;896.40;1100.80;;;;;;5072328;28;20332;-55
2022/08/04 10:08:35;;;;;;;;;;;;;;;;;;5071977;28;19913;-55
2022/08/04 10:11:01;;;;;;;;;;;;;;;;;;5072080;28;20270;-55
2022/08/04 10:13:27;;;;;;;;;;;;;;;;;;5072569;28;19912;-55
2022/08/04 10:16:11;;;;;;;;;;;896.30;1075.20;;;;;;5072773;28;19913;-55
2022/08/04 10:18:37;;;;;;;;;;;;;;;;;;5073215;28;20576;-58
2022/08/04 10:21:21;;;;;;;;;;;871.30;1100.80;;;;;;5073480;28;20001;-56
2022/08/04 10:24:09;;;;;;;;;;;870.90;1100.80;;;;;;5070580;28;19939;-59
2022/08/04 10:26:38;;;;;;;;;;;871.10;1075.20;;;;;;5072655;28;19913;-56
2022/08/04 10:29:16;;;;;;;;;;;871.30;1075.20;;;;;;5072169;28;19908;-56
2022/08/04 10:31:48;;;;;;;;;;;871.30;1075.20;;;;;;5071665;28;19919;-64
2022/08/04 10:34:19;;;;;;;;;;;871.30;1075.20;;;;;;5071833;28;19951;-57
2022/08/04 10:36:53;;;;;;;;;;;896.00;1075.20;;;;;;5070864;28;19909;-63
2022/08/04 10:39:22;;;;;;;;;;;896.20;1075.20;;;;;;5070776;28;20376;-64
2022/08/04 10:41:56;;;;;;;;;;;871.30;1075.20;;;;;;5074814;28;19998;-56
2022/08/04 10:44:25;;;;;;;;;;;896.00;1100.80;;;;;;5074402;28;19917;-55
2022/08/04 10:46:56;;;;;;;;;;;871.20;1100.80;;;;;;5074380;28;19983;-64
2022/08/04 10:49:36;;;;;;;;;;;871.30;1075.20;;;;;;5073673;28;19931;-63
2022/08/04 10:52:07;;;;;;;;;;;871.10;1075.20;;;;;;5071301;28;19931;-61
2022/08/04 10:54:33;;;;;;;;;;;896.00;1100.80;;;;;;5071531;28;20053;-64
2022/08/04 10:57:04;;;;;;;;;;;896.40;1075.20;;;;;;5071393;28;19999;-60
2022/08/04 10:59:30;;;;;;;;;;;896.50;1049.60;;;;;;5071279;28;19908;-64
2022/08/04 11:01:59;;;;;;;;;;;896.50;1049.60;;;;;;5071076;28;20377;-67
2022/08/04 11:04:37;;;;;;;;;;;896.10;1049.60;;;;;;5071260;28;20405;-64
2022/08/04 11:07:03;;;;;;;;;;;871.10;1049.60;;;;;;5071465;28;20269;-66
2022/08/04 11:09:30;;;;;;;;;;;871.20;1024.00;;;;;;5070753;28;19944;-59
2022/08/04 11:12:00;;;;;;;;;;;871.00;1024.00;;;;;;5071427;28;19909;-60
2022/08/04 11:14:44;;;;;;;;;;;871.20;1075.20;;;;;;5071075;28;19961;-65
2022/08/04 11:17:16;;;;;;;;;;;871.20;1049.60;;;;;;5071309;28;19908;-63
2022/08/04 11:20:00;;;;;;;;;;;896.00;1049.60;;;;;;5071460;28;19908;-62
2022/08/04 11:25:34;;;;;;;;;;;871.20;1024.00;;;;;;5073864;28;19946;-56
2022/08/04 11:28:18;;;;;;;;;;;896.20;1024.00;;;;;;5073463;28;19951;-59
2022/08/04 11:30:55;;;;;;;;;;;896.40;1024.00;;;;;;5073116;28;20357;-59
2022/08/04 11:33:33;;;;;;;;;;;896.80;1024.00;;;;;;5073541;28;19912;-65
2022/08/04 11:36:08;;;;;;;;;;;896.90;1024.00;;;;;;5073560;28;20015;-57
2022/08/04 11:41:56;;;;;;;;;;;921.60;1075.20;;;;;;5073661;28;20320;-57
2022/08/04 11:44:40;;;;;;;;;;;896.40;1024.00;;;;;;5076693;28;20035;-55
2022/08/04 11:47:29;;;;;;;;;;;896.40;1024.00;;;;;;5077271;28;19927;-58
2022/08/04 11:50:01;;;;;;;;;;;896.10;1049.60;;;;;;5077497;28;20373;-58
2022/08/04 11:52:27;;;;;;;;;;;896.40;1024.00;;;;;;5077551;28;19908;-57
2022/08/04 11:54:54;;;;;;;;;;;896.50;1024.00;;;;;;5077125;28;19912;-56
2022/08/04 11:57:20;;;;;;;;;;;896.40;1024.00;;;;;;5077233;28;19914;-58
2022/08/04 11:59:47;;;;;;;;;;;896.90;1024.00;;;;;;5076795;28;20391;-56
2022/08/04 12:02:32;;;;;;;;;;;896.60;998.40;;;;;;5077197;28;19967;-56
2022/08/04 12:04:59;;;;;;;;;;;896.40;1024.00;;;;;;5077088;28;20273;-56
2022/08/04 12:07:24;;;;;;;;;;;896.40;1024.00;;;;;;5074104;28;19913;-56
2022/08/04 12:10:22;;;;;;;;;;;896.60;1024.00;;;;;;5072406;28;19909;-56
2022/08/04 12:13:11;;;;;;;;;;;896.10;1024.00;;;;;;5010246;28;20100;-56
2022/08/04 12:15:44;;;;;;;;;;;896.30;1024.00;;;;;;5009932;28;19913;-55
2022/08/04 12:18:15;;;;;;;;;;;896.10;1049.60;;;;;;5010122;28;20314;-56
2022/08/04 12:20:44;;;;;;;;;;;896.30;1024.00;;;;;;5009758;28;19951;-56
2022/08/04 12:23:29;;;;;;;;;;;896.40;1024.00;;;;;;5009830;28;19913;-56
2022/08/04 12:25:57;;;;;;;;;;;896.20;1024.00;;;;;;5010112;28;19920;-56
2022/08/04 12:28:25;;;;;;;;;;;871.20;1024.00;;;;;;5010213;28;19914;-56
2022/08/04 12:30:55;;;;;;;;;;;896.00;1049.60;;;;;;5009961;28;19917;-55
2022/08/04 12:33:23;;;;;;;;;;;871.20;1049.60;;;;;;5009485;28;19953;-55
2022/08/04 12:35:58;;;;;;;;;;;896.00;1049.60;;;;;;5009799;28;20350;-56
2022/08/04 12:38:26;;;;;;;;;;;871.10;1049.60;;;;;;5009917;28;19960;-54
2022/08/04 12:40:56;;;;;;;;;;;871.10;1024.00;;;;;;5009979;28;19956;-55
2022/08/04 12:43:36;;;;;;;;;;;871.10;1049.60;;;;;;5009268;28;19921;-56
2022/08/04 12:46:05;;;;;;;;;;;871.10;1024.00;;;;;;5008349;28;19909;-54
2022/08/04 12:48:32;;;;;;;;;;;871.30;1024.00;;;;;;5042561;28;19909;-55
2022/08/04 12:50:58;;;;;;;;;;;896.10;1049.60;;;;;;5070445;28;20351;-58
2022/08/04 12:53:35;;;;;;;;;;;871.20;1024.00;;;;;;5070380;28;20008;-55
2022/08/04 12:56:01;;;;;;;;;;;871.10;1024.00;;;;;;5068370;28;20190;-56
2022/08/04 12:58:29;;;;;;;;;;;871.30;1024.00;;;;;;5070847;28;19939;-57
2022/08/04 13:00:57;;;;;;;;;;;871.30;1024.00;;;;;;5071034;28;19967;-56
2022/08/04 13:03:26;;;;;;;;;;;896.10;1024.00;;;;;;5071186;28;20022;-55
2022/08/04 13:05:53;;;;;;;;;;;896.10;1024.00;;;;;;5071476;28;20579;-55
2022/08/04 13:08:19;;;;;;;;;;;871.30;1024.00;;;;;;5071087;28;19932;-55
2022/08/04 13:10:46;;;;;;;;;;;896.20;1049.60;;;;;;5071304;28;20354;-56
2022/08/04 13:13:19;;;;;;;;;;;896.00;1024.00;;;;;;5071144;28;20011;-56
2022/08/04 13:16:01;;;;;;;;;;;871.10;1024.00;;;;;;5071313;28;19958;-56
2022/08/04 13:18:28;;;;;;;;;;;871.20;1024.00;;;;;;5071135;28;19916;-56
2022/08/04 13:20:55;;;;;;;;;;;871.10;1049.60;;;;;;5071263;28;20006;-55
2022/08/04 13:23:20;;;;;;;;;;;871.10;1049.60;;;;;;5070889;28;19917;-54
2022/08/04 13:25:47;;;;;;;;;;;871.30;1075.20;;;;;;5070556;28;19970;-55
2022/08/04 13:28:15;;;;;;;;;;;871.30;1049.60;;;;;;5071125;28;20018;-55
2022/08/04 13:30:43;;;;;;;;;;;896.00;1049.60;;;;;;5070802;28;19966;-55
2022/08/04 13:33:08;;;;;;;;;;;871.30;1049.60;;;;;;5070981;28;19917;-55
2022/08/04 13:35:36;;;;;;;;;;;871.30;1049.60;;;;;;5070997;28;19908;-56
2022/08/04 13:38:03;;;;;;;;;;;871.10;1024.00;;;;;;5070605;28;19917;-54
2022/08/04 13:40:28;;;;;;;;;;;871.10;1075.20;;;;;;5070684;28;19915;-56
2022/08/04 13:42:55;;;;;;;;;;;871.20;1049.60;;;;;;5070881;28;19908;-61
2022/08/04 13:45:22;;;;;;;;;;;871.10;1049.60;;;;;;5070457;28;19912;-60
2022/08/04 13:47:49;;;;;;;;;;;871.10;1049.60;;;;;;5070403;28;19920;-55
2022/08/04 13:50:16;;;;;;;;;;;870.90;1024.00;;;;;;5072188;28;19916;-54
2022/08/04 13:52:42;;;;;;;;;;;870.90;1049.60;;;;;;5079328;28;19957;-55
2022/08/04 13:55:18;;;;;;;;;;;870.90;1049.60;;;;;;5080142;28;19964;-57
2022/08/04 13:57:45;;;;;;;;;;;870.90;1024.00;;;;;;5076930;28;19912;-55
2022/08/04 14:00:11;;;;;;;;;;;870.70;1024.00;;;;;;5079785;28;20036;-55
2022/08/04 14:02:37;;;;;;;;;;;870.90;1049.60;;;;;;5080924;28;19913;-55
2022/08/04 14:05:14;;;;;;;;;;;870.90;1024.00;;;;;;5078589;28;19921;-54
2022/08/04 14:08:00;;;;;;;;;;;870.90;1049.60;;;;;;5078616;28;20382;-55
2022/08/04 14:10:26;;;;;;;;;;;871.00;1049.60;;;;;;5069298;28;19954;-55
2022/08/04 14:12:51;;;;;;;;;;;870.90;1024.00;;;;;;5074352;28;20396;-56